createdAt,value
2023-03-17T00:00:02.078Z,101240.63
2023-03-17T00:03:25.015Z,101242.34
2023-03-17T00:06:29.764Z,101236.38
2023-03-17T00:09:31.192Z,101228.66
2023-03-17T00:12:32.641Z,101230.31
2023-03-17T00:15:34.444Z,101231.97
2023-03-17T00:18:37.052Z,101232.84
2023-03-17T00:21:38.582Z,101244.84
2023-03-17T00:24:40.041Z,101231.22
2023-03-17T00:27:41.432Z,101234.69
2023-03-17T00:30:43.302Z,101228.78
2023-03-17T00:33:45.676Z,101223.84
2023-03-17T00:36:49.430Z,101208.59
2023-03-17T00:39:50.760Z,101209.94
2023-03-17T00:42:53.200Z,101212.41
2023-03-17T00:45:54.708Z,101214.19
2023-03-17T00:48:56.254Z,101210.81
2023-03-17T00:51:57.719Z,101210.09
2023-03-17T00:54:59.162Z,101216.94
2023-03-17T00:58:00.610Z,101225.59
2023-03-17T01:01:02.161Z,101222.25
2023-03-17T01:04:03.697Z,101223.19
2023-03-17T01:07:05.624Z,101219.88
2023-03-17T01:10:15.993Z,101215.69
2023-03-17T01:13:17.460Z,101218.34
2023-03-17T01:16:18.880Z,101223.47
2023-03-17T01:19:21.067Z,101213.34
2023-03-17T01:22:22.647Z,101215.06
2023-03-17T01:25:24.353Z,101212.53
2023-03-17T01:28:25.810Z,101199.00
2023-03-17T01:31:27.335Z,101200.78
2023-03-17T01:34:29.139Z,101201.66
2023-03-17T01:37:30.724Z,101200.84
2023-03-17T01:40:35.001Z,101197.41
2023-03-17T01:43:36.415Z,101191.44
2023-03-17T01:46:37.885Z,101184.63
2023-03-17T01:49:39.452Z,101181.19
2023-03-17T01:52:41.001Z,101169.31
2023-03-17T01:55:44.527Z,101174.44
2023-03-17T01:58:48.670Z,101171.94
2023-03-17T02:01:54.568Z,101168.50
2023-03-17T02:04:57.039Z,101160.84
2023-03-17T02:07:58.979Z,101140.34
2023-03-17T02:11:04.116Z,101137.75
2023-03-17T02:14:05.595Z,101145.44
2023-03-17T02:17:07.337Z,101152.19
2023-03-17T02:20:32.656Z,101164.19
2023-03-17T02:23:34.179Z,101161.63
2023-03-17T02:26:36.817Z,101161.63
2023-03-17T02:29:38.337Z,101140.47
2023-03-17T02:32:39.921Z,101159.22
2023-03-17T02:35:41.585Z,101160.13
2023-03-17T02:38:43.203Z,101149.97
2023-03-17T02:41:44.650Z,101152.53
2023-03-17T02:44:46.132Z,101149.13
2023-03-17T02:47:49.369Z,101154.31
2023-03-17T02:50:50.788Z,101146.72
2023-03-17T02:53:52.230Z,101133.91
2023-03-17T02:56:53.668Z,101124.53
2023-03-17T02:59:55.070Z,101131.34
2023-03-17T03:02:56.703Z,101133.91
2023-03-17T03:05:58.249Z,101144.06
2023-03-17T03:08:59.719Z,101154.28
2023-03-17T03:12:01.209Z,101156.06
2023-03-17T03:15:02.705Z,101156.09
2023-03-17T03:18:04.159Z,101156.09
2023-03-17T03:21:06.190Z,101147.66
2023-03-17T03:24:08.465Z,101129.75
2023-03-17T03:27:10.006Z,101112.78
2023-03-17T03:30:11.820Z,101098.34
2023-03-17T03:33:14.691Z,101098.34
2023-03-17T03:36:16.192Z,101068.63
2023-03-17T03:39:17.671Z,101061.81
2023-03-17T03:42:19.100Z,101066.03
2023-03-17T03:45:20.588Z,101068.53
2023-03-17T03:48:22.555Z,101067.66
2023-03-17T03:51:24.154Z,101092.38
2023-03-17T03:54:25.643Z,101101.81
2023-03-17T03:57:27.234Z,101097.69
2023-03-17T04:00:29.235Z,101085.06
2023-03-17T04:03:30.751Z,101083.50
2023-03-17T04:06:32.280Z,101075.00
2023-03-17T04:09:33.731Z,101068.16
2023-03-17T04:12:35.294Z,101072.34
2023-03-17T04:15:36.920Z,101072.38
2023-03-17T04:18:38.392Z,101080.00
2023-03-17T04:21:39.856Z,101085.13
2023-03-17T04:24:41.280Z,101084.34
2023-03-17T04:27:42.871Z,101087.84
2023-03-17T04:30:44.272Z,101077.69
2023-03-17T04:33:45.702Z,101076.09
2023-03-17T04:36:47.883Z,101077.81
2023-03-17T04:39:49.329Z,101070.22
2023-03-17T04:42:50.733Z,101065.09
2023-03-17T04:45:52.188Z,101051.50
2023-03-17T04:48:53.897Z,101057.44
2023-03-17T04:51:55.391Z,101046.38
2023-03-17T04:54:57.029Z,101043.00
2023-03-17T04:57:58.450Z,101043.94
2023-03-17T05:01:00.037Z,101060.06
2023-03-17T05:04:01.513Z,101059.38
2023-03-17T05:07:03.084Z,101054.41
2023-03-17T05:10:05.212Z,101056.16
2023-03-17T05:13:06.708Z,101049.44
2023-03-17T05:16:09.061Z,101043.59
2023-03-17T05:19:10.575Z,101040.28
2023-03-17T05:22:12.022Z,101040.31
2023-03-17T05:25:13.470Z,101048.00
2023-03-17T05:28:15.171Z,101047.16
2023-03-17T05:31:16.726Z,101039.50
2023-03-17T05:34:18.231Z,101040.28
2023-03-17T05:37:19.683Z,101030.91
2023-03-17T05:40:22.596Z,101031.69
2023-03-17T05:43:25.407Z,101018.06
2023-03-17T05:46:26.956Z,101013.69
2023-03-17T05:49:28.583Z,101017.88
2023-03-17T05:52:30.872Z,101016.91
2023-03-17T05:55:32.349Z,101023.63
2023-03-17T05:58:33.838Z,101032.00
2023-03-17T06:01:35.292Z,101031.91
2023-03-17T06:04:37.654Z,101034.31
2023-03-17T06:07:51.598Z,101038.44
2023-03-17T06:10:56.159Z,101040.94
2023-03-17T06:13:57.641Z,101029.75
2023-03-17T06:16:59.045Z,101034.72
2023-03-17T06:20:00.453Z,101024.41
2023-03-17T06:23:05.334Z,101020.88
2023-03-17T06:26:08.460Z,101023.16
2023-03-17T06:29:10.018Z,101026.16
2023-03-17T06:32:20.276Z,101024.84
2023-03-17T06:35:22.321Z,101029.53
2023-03-17T06:38:23.728Z,101027.97
2023-03-17T06:41:25.180Z,101030.81
2023-03-17T06:44:26.599Z,101028.09
2023-03-17T06:47:27.995Z,101038.03
2023-03-17T06:50:29.950Z,101036.75
2023-03-17T06:53:31.606Z,101043.41
2023-03-17T06:56:33.041Z,101045.00
2023-03-17T06:59:34.458Z,101039.97
2023-03-17T07:02:35.859Z,101043.81
2023-03-17T07:05:37.318Z,101041.41
2023-03-17T07:08:38.691Z,101036.28
2023-03-17T07:11:40.103Z,101028.75
2023-03-17T07:14:41.631Z,101031.72
2023-03-17T07:17:43.208Z,101037.34
2023-03-17T07:20:44.708Z,101038.00
2023-03-17T07:23:46.090Z,101035.03
2023-03-17T07:26:47.449Z,101042.72
2023-03-17T07:29:48.882Z,101046.94
2023-03-17T07:32:50.284Z,101047.78
2023-03-17T07:35:51.932Z,101034.84
2023-03-17T07:38:53.381Z,101038.59
2023-03-17T07:41:54.983Z,101034.41
2023-03-17T07:44:56.478Z,101036.34
2023-03-17T07:47:57.876Z,101037.91
2023-03-17T07:50:59.441Z,101039.47
2023-03-17T07:54:01.243Z,101031.84
2023-03-17T07:57:03.301Z,101020.47
2023-03-17T08:00:06.569Z,101008.19
2023-03-17T08:03:12.791Z,100997.19
2023-03-17T08:06:14.224Z,101003.09
2023-03-17T08:09:15.650Z,101003.06
2023-03-17T08:12:17.069Z,101012.25
2023-03-17T08:15:18.701Z,101022.09
2023-03-17T08:18:20.074Z,101030.63
2023-03-17T08:21:21.499Z,101042.53
2023-03-17T08:24:22.878Z,101027.81
2023-03-17T08:27:24.712Z,101020.38
2023-03-17T08:30:26.161Z,101001.72
2023-03-17T08:33:27.577Z,101010.63
2023-03-17T08:36:29.327Z,101009.91
2023-03-17T08:39:30.928Z,101007.50
2023-03-17T08:42:32.329Z,100999.66
2023-03-17T08:45:33.759Z,100992.84
2023-03-17T08:48:36.484Z,100998.06
2023-03-17T08:51:38.792Z,100984.00
2023-03-17T08:54:40.173Z,100985.25
2023-03-17T08:57:42.777Z,100983.81
2023-03-17T09:00:44.159Z,100972.25
2023-03-17T09:03:45.559Z,100958.44
2023-03-17T09:07:02.272Z,100954.97
2023-03-17T09:10:06.080Z,100953.97
2023-03-17T09:13:07.464Z,100949.97
2023-03-17T09:16:09.022Z,100941.69
2023-03-17T09:19:10.470Z,100938.22
2023-03-17T09:22:13.919Z,100942.94
2023-03-17T09:25:16.456Z,100947.19
2023-03-17T09:28:18.098Z,100945.03
2023-03-17T09:31:19.564Z,100950.97
2023-03-17T09:34:20.973Z,100943.81
2023-03-17T09:37:22.385Z,100950.53
2023-03-17T09:40:31.209Z,100954.63
2023-03-17T09:43:47.947Z,100943.81
2023-03-17T09:47:20.841Z,100946.13
2023-03-17T09:50:27.070Z,100953.63
2023-03-17T09:53:40.599Z,100949.38
2023-03-17T09:56:43.137Z,100946.41
2023-03-17T09:59:47.787Z,100956.69
2023-03-17T10:02:49.229Z,100945.75
2023-03-17T10:05:50.994Z,100947.13
2023-03-17T10:09:02.218Z,100952.31
2023-03-17T10:12:08.320Z,100964.22
2023-03-17T10:15:54.975Z,100951.59
2023-03-17T10:19:09.758Z,100961.41
2023-03-17T10:22:21.038Z,100958.75
2023-03-17T10:25:34.797Z,100954.34
2023-03-17T10:28:36.596Z,100948.72
2023-03-17T10:31:38.266Z,100948.06
2023-03-17T10:34:42.023Z,100943.34
2023-03-17T10:37:46.445Z,100943.06
2023-03-17T10:40:58.826Z,100932.13
2023-03-17T10:44:00.377Z,100944.41
2023-03-17T10:47:01.892Z,100945.94
2023-03-17T10:50:20.406Z,100945.63
2023-03-17T10:53:23.972Z,100950.84
2023-03-17T10:56:28.223Z,100941.44
2023-03-17T10:59:32.130Z,100943.59
2023-03-17T11:02:44.289Z,100941.00
2023-03-17T11:06:03.346Z,100935.00
2023-03-17T11:09:09.182Z,100933.34
2023-03-17T11:12:28.546Z,100932.00
2023-03-17T11:15:35.553Z,100927.00
2023-03-17T11:18:39.286Z,100923.44
2023-03-17T11:21:57.348Z,100913.25
2023-03-17T11:25:19.752Z,100901.19
2023-03-17T11:28:22.541Z,100900.16
2023-03-17T11:31:32.724Z,100909.91
2023-03-17T11:35:03.528Z,100911.81
2023-03-17T11:38:21.819Z,100901.72
2023-03-17T11:41:58.560Z,100895.97
2023-03-17T11:44:59.977Z,100915.13
2023-03-17T11:48:13.220Z,100915.97
2023-03-17T11:51:36.495Z,100902.34
2023-03-17T11:55:05.064Z,100893.94
2023-03-17T11:58:12.160Z,100885.22
2023-03-17T12:01:19.340Z,100883.47
2023-03-17T12:04:27.300Z,100884.81
2023-03-17T12:07:43.647Z,100872.72
2023-03-17T12:10:52.821Z,100860.88
2023-03-17T12:14:15.189Z,100875.00
2023-03-17T12:17:21.015Z,100860.53
2023-03-17T12:20:34.950Z,100857.97
2023-03-17T12:23:45.817Z,100861.78
2023-03-17T12:27:13.202Z,100865.69
2023-03-17T12:30:22.256Z,100861.41
2023-03-17T12:33:49.802Z,100855.75
2023-03-17T12:36:52.351Z,100849.59
2023-03-17T12:40:01.415Z,100851.81
2023-03-17T12:43:24.015Z,100846.72
2023-03-17T12:46:47.395Z,100870.19
2023-03-17T12:50:27.255Z,100871.09
2023-03-17T12:53:32.139Z,100877.28
2023-03-17T12:56:36.079Z,100884.47
2023-03-17T12:59:42.942Z,100878.34
2023-03-17T13:02:49.098Z,100882.88
2023-03-17T13:05:54.400Z,100883.97
2023-03-17T13:08:55.943Z,100892.91
2023-03-17T13:11:58.538Z,100897.59
2023-03-17T13:14:59.986Z,100884.63
2023-03-17T13:18:27.204Z,100869.94
2023-03-17T13:21:31.034Z,100859.78
2023-03-17T13:24:42.209Z,100866.06
2023-03-17T13:27:45.194Z,100863.56
2023-03-17T13:31:24.342Z,100863.69
2023-03-17T13:34:28.165Z,100857.88
2023-03-17T13:37:35.525Z,100854.44
2023-03-17T13:41:00.107Z,100848.47
2023-03-17T13:44:29.110Z,100849.09
2023-03-17T13:47:39.640Z,100842.81
2023-03-17T13:50:42.222Z,100842.22
2023-03-17T13:54:06.172Z,100852.88
2023-03-17T13:57:23.033Z,100854.63
2023-03-17T14:00:28.890Z,100850.63
2023-03-17T14:03:37.665Z,100851.84
2023-03-17T14:06:39.616Z,100846.84
2023-03-17T14:09:41.553Z,100848.69
2023-03-17T14:13:04.789Z,100846.13
2023-03-17T14:16:27.687Z,100845.97
2023-03-17T14:19:29.870Z,100847.22
2023-03-17T14:22:31.253Z,100840.00
2023-03-17T14:25:35.922Z,100838.63
2023-03-17T14:28:37.663Z,100838.75
2023-03-17T14:31:39.121Z,100845.38
2023-03-17T14:34:48.528Z,100843.91
2023-03-17T14:37:50.027Z,100844.63
2023-03-17T14:41:03.473Z,100834.09
2023-03-17T14:44:08.991Z,100833.97
2023-03-17T14:47:22.826Z,100829.53
2023-03-17T14:50:31.996Z,100831.09
2023-03-17T14:53:35.528Z,100837.94
2023-03-17T14:56:40.736Z,100845.44
2023-03-17T14:59:54.544Z,100841.91
2023-03-17T15:02:58.392Z,100850.28
2023-03-17T15:06:26.052Z,100850.63
2023-03-17T15:09:29.748Z,100850.53
2023-03-17T15:12:31.574Z,100848.47
2023-03-17T15:15:36.979Z,100853.16
2023-03-17T15:18:38.381Z,100851.09
2023-03-17T15:21:41.955Z,100840.19
2023-03-17T15:24:43.375Z,100837.69
2023-03-17T15:27:45.763Z,100840.66
2023-03-17T15:30:50.270Z,100836.31
2023-03-17T15:33:52.346Z,100835.00
2023-03-17T15:36:53.751Z,100827.50
2023-03-17T15:39:56.384Z,100808.81
2023-03-17T15:42:57.772Z,100805.69
2023-03-17T15:46:06.217Z,100805.81
2023-03-17T15:49:12.162Z,100819.84
2023-03-17T15:52:16.776Z,100823.19
2023-03-17T15:55:23.936Z,100804.59
2023-03-17T15:58:25.341Z,100795.22
2023-03-17T16:01:28.039Z,100802.09
2023-03-17T16:04:29.554Z,100811.06
2023-03-17T16:07:31.044Z,100823.31
2023-03-17T16:10:33.479Z,100824.34
2023-03-17T16:13:35.154Z,100837.69
2023-03-17T16:16:39.466Z,100841.44
2023-03-17T16:19:40.944Z,100842.69
2023-03-17T16:22:43.469Z,100843.72
2023-03-17T16:25:46.159Z,100850.28
2023-03-17T16:28:47.893Z,100846.22
2023-03-17T16:31:50.983Z,100844.88
2023-03-17T16:34:52.341Z,100851.59
2023-03-17T16:37:54.067Z,100862.44
2023-03-17T16:40:59.543Z,100864.28
2023-03-17T16:44:02.252Z,100867.28
2023-03-17T16:47:03.903Z,100876.72
2023-03-17T16:50:14.564Z,100884.16
2023-03-17T16:53:16.103Z,100881.88
2023-03-17T16:56:22.400Z,100889.97
2023-03-17T16:59:23.841Z,100876.66
2023-03-17T17:02:25.335Z,100866.66
2023-03-17T17:05:29.339Z,100846.84
2023-03-17T17:08:30.725Z,100852.34
2023-03-17T17:11:32.168Z,100834.47
2023-03-17T17:14:33.578Z,100813.94
2023-03-17T17:17:37.176Z,100810.78
2023-03-17T17:20:40.182Z,100809.00
2023-03-17T17:23:41.717Z,100812.56
2023-03-17T17:26:43.139Z,100831.53
2023-03-17T17:29:44.560Z,100861.28
2023-03-17T17:32:46.639Z,100851.38
2023-03-17T17:35:49.193Z,100861.22
2023-03-17T17:38:50.617Z,100855.78
2023-03-17T17:41:52.018Z,100866.31
2023-03-17T17:44:53.423Z,100858.19
2023-03-17T17:47:54.858Z,100863.81
2023-03-17T17:50:57.259Z,100870.84
2023-03-17T17:53:58.792Z,100866.97
2023-03-17T17:57:00.716Z,100874.72
2023-03-17T18:00:02.618Z,100865.56
2023-03-17T18:03:10.263Z,100874.66
2023-03-17T18:06:12.268Z,100878.44
2023-03-17T18:09:14.822Z,100885.34
2023-03-17T18:12:16.254Z,100884.53
2023-03-17T18:15:18.023Z,100892.13
2023-03-17T18:18:19.515Z,100893.31
2023-03-17T18:21:20.948Z,100890.53
2023-03-17T18:24:22.372Z,100893.13
2023-03-17T18:27:23.761Z,100885.63
2023-03-17T18:30:28.109Z,100883.03
2023-03-17T18:33:29.641Z,100876.38
2023-03-17T18:36:31.050Z,100873.22
2023-03-17T18:39:32.431Z,100875.13
2023-03-17T18:42:33.891Z,100885.59
2023-03-17T18:45:35.385Z,100889.84
2023-03-17T18:48:37.186Z,100894.34
2023-03-17T18:51:38.636Z,100884.28
2023-03-17T18:54:40.073Z,100879.28
2023-03-17T18:57:44.426Z,100869.84
2023-03-17T19:00:46.438Z,100866.44
2023-03-17T19:03:47.917Z,100868.84
2023-03-17T19:06:49.277Z,100867.84
2023-03-17T19:09:50.704Z,100862.00
2023-03-17T19:12:52.133Z,100849.88
2023-03-17T19:15:53.510Z,100846.47
2023-03-17T19:18:56.000Z,100831.03
2023-03-17T19:21:57.429Z,100826.13
2023-03-17T19:24:58.815Z,100820.09
2023-03-17T19:28:00.166Z,100823.44
2023-03-17T19:31:01.756Z,100841.09
2023-03-17T19:34:03.190Z,100851.22
2023-03-17T19:37:04.602Z,100849.72
2023-03-17T19:40:08.252Z,100848.25
2023-03-17T19:43:09.639Z,100839.22
2023-03-17T19:46:11.724Z,100843.44
2023-03-17T19:49:13.638Z,100836.97
2023-03-17T19:52:15.044Z,100826.75
2023-03-17T19:55:16.439Z,100823.53
2023-03-17T19:58:17.857Z,100816.69
2023-03-17T20:01:19.323Z,100811.50
2023-03-17T20:04:20.801Z,100815.09
2023-03-17T20:07:22.407Z,100818.19
2023-03-17T20:10:23.895Z,100834.94
2023-03-17T20:13:25.303Z,100835.81
2023-03-17T20:16:27.024Z,100838.31
2023-03-17T20:19:28.425Z,100828.78
2023-03-17T20:22:29.853Z,100834.88
2023-03-17T20:25:31.254Z,100830.63
2023-03-17T20:28:32.884Z,100827.13
2023-03-17T20:31:35.762Z,100822.88
2023-03-17T20:34:37.672Z,100817.81
2023-03-17T20:37:39.270Z,100813.69
2023-03-17T20:40:40.653Z,100802.31
2023-03-17T20:43:42.334Z,100804.78
2023-03-17T20:46:43.965Z,100797.03
2023-03-17T20:49:45.530Z,100799.63
2023-03-17T20:52:47.121Z,100808.53
2023-03-17T20:55:48.547Z,100812.09
2023-03-17T20:58:50.924Z,100825.66
2023-03-17T21:01:52.364Z,100830.84
2023-03-17T21:04:53.753Z,100823.72
2023-03-17T21:07:55.171Z,100820.03
2023-03-17T21:10:56.642Z,100819.50
2023-03-17T21:13:58.131Z,100812.78
2023-03-17T21:16:59.887Z,100811.66
2023-03-17T21:20:01.333Z,100806.66
2023-03-17T21:23:02.757Z,100808.56
2023-03-17T21:26:04.644Z,100801.69
2023-03-17T21:29:06.012Z,100799.31
2023-03-17T21:32:07.501Z,100806.94
2023-03-17T21:35:09.422Z,100809.44
2023-03-17T21:38:10.915Z,100801.69
2023-03-17T21:41:41.432Z,100812.31
2023-03-17T21:44:42.820Z,100807.25
2023-03-17T21:47:44.493Z,100810.97
2023-03-17T21:50:47.279Z,100803.25
2023-03-17T21:53:49.064Z,100799.16
2023-03-17T21:56:50.450Z,100794.50
2023-03-17T21:59:51.861Z,100794.88
2023-03-17T22:02:53.245Z,100807.97
2023-03-17T22:05:54.886Z,100804.47
2023-03-17T22:08:56.367Z,100806.22
2023-03-17T22:11:57.761Z,100801.91
2023-03-17T22:14:59.173Z,100802.06
2023-03-17T22:18:00.691Z,100800.47
2023-03-17T22:21:02.760Z,100799.88
2023-03-17T22:24:04.191Z,100798.13
2023-03-17T22:27:05.689Z,100799.88
2023-03-17T22:30:07.765Z,100792.13
2023-03-17T22:33:09.798Z,100786.22
2023-03-17T22:36:11.785Z,100783.78
2023-03-17T22:39:13.224Z,100792.47
2023-03-17T22:42:14.653Z,100804.69
2023-03-17T22:45:16.267Z,100796.94
2023-03-17T22:48:17.697Z,100796.88
2023-03-17T22:51:22.346Z,100805.38
2023-03-17T22:54:23.844Z,100807.09
2023-03-17T22:57:25.280Z,100804.59
2023-03-17T23:00:26.717Z,100812.19
2023-03-17T23:03:28.617Z,100810.59
2023-03-17T23:06:30.048Z,100814.25
2023-03-17T23:09:31.807Z,100816.16
2023-03-17T23:12:34.456Z,100814.03
2023-03-17T23:15:35.924Z,100811.25
2023-03-17T23:18:37.318Z,100804.16
2023-03-17T23:21:39.306Z,100801.03
2023-03-17T23:24:40.702Z,100808.22
2023-03-17T23:27:42.239Z,100805.00
2023-03-17T23:30:44.123Z,100802.69
2023-03-17T23:33:47.135Z,100802.03
2023-03-17T23:36:48.646Z,100805.69
2023-03-17T23:39:50.103Z,100796.25
2023-03-17T23:42:51.718Z,100796.94
2023-03-17T23:45:53.483Z,100792.69
2023-03-17T23:48:54.925Z,100796.94
2023-03-17T23:51:56.427Z,100796.88
2023-03-17T23:54:57.948Z,100800.44
2023-03-17T23:57:59.407Z,100798.91
